Time;durP1;ratioP1;P1;durP2;ratioP2;P2;SDS_P1;SDS_P2;PMS_P1;PMS_P2;Temp;Humidity;BMP_temperature;BMP_pressure;BME280_temperature;BME280_humidity;BME280_pressure;Samples;Min_cycle;Max_cycle;Signal;HPM_P1;HPM_P2
2020/12/30 00:01:57;;;;;;;1.67;1.27;;;4.70;99.90;;;;;;4984656;28;20208;-81
2020/12/30 00:04:23;;;;;;;1.20;0.80;;;4.70;99.90;;;;;;4984136;28;20195;-81
2020/12/30 00:06:53;;;;;;;1.40;1.30;;;4.70;99.90;;;;;;4985714;28;20604;-81
2020/12/30 00:09:19;;;;;;;0.70;0.70;;;4.60;99.90;;;;;;4985604;28;20204;-80
2020/12/30 00:11:45;;;;;;;1.73;0.80;;;4.60;99.90;;;;;;4985731;28;20200;-80
2020/12/30 00:14:12;;;;;;;0.80;0.80;;;4.60;99.90;;;;;;4995103;28;20278;-80
2020/12/30 00:16:39;;;;;;;1.30;0.80;;;4.50;99.90;;;;;;5005128;28;20625;-80
2020/12/30 00:19:05;;;;;;;2.43;0.90;;;4.50;99.90;;;;;;5004355;28;20214;-79
2020/12/30 00:21:31;;;;;;;1.57;0.90;;;4.50;99.90;;;;;;5004146;28;20235;-80
2020/12/30 00:23:57;;;;;;;1.80;1.20;;;4.50;99.90;;;;;;5004133;28;20207;-81
2020/12/30 00:26:24;;;;;;;2.17;1.00;;;4.40;99.90;;;;;;5003303;28;20203;-81
2020/12/30 00:28:50;;;;;;;3.47;2.10;;;4.40;99.90;;;;;;5002515;28;20265;-79
2020/12/30 00:31:17;;;;;;;4.17;1.97;;;4.40;99.90;;;;;;5001993;28;20242;-80
2020/12/30 00:33:44;;;;;;;3.67;2.27;;;4.30;99.90;;;;;;5002529;28;20748;-80
2020/12/30 00:36:10;;;;;;;4.30;2.30;;;4.30;99.90;;;;;;5002629;28;20227;-80
2020/12/30 00:38:37;;;;;;;4.03;2.60;;;4.30;99.90;;;;;;5003204;28;20435;-81
2020/12/30 00:41:03;;;;;;;7.37;2.70;;;4.30;99.90;;;;;;5003451;28;20604;-80
2020/12/30 00:43:29;;;;;;;6.87;3.43;;;4.40;99.90;;;;;;5002952;28;20215;-81
2020/12/30 00:45:55;;;;;;;3.80;2.47;;;4.40;99.90;;;;;;5002168;28;20203;-78
2020/12/30 00:48:23;;;;;;;7.33;2.47;;;4.40;99.90;;;;;;5002646;28;20207;-78
2020/12/30 00:50:49;;;;;;;3.93;2.60;;;4.40;99.90;;;;;;5003163;28;20211;-79
2020/12/30 00:53:15;;;;;;;4.30;2.40;;;4.40;99.90;;;;;;5002264;28;20203;-79
2020/12/30 00:55:41;;;;;;;6.43;2.80;;;4.40;99.90;;;;;;5002645;28;20235;-79
2020/12/30 00:58:07;;;;;;;5.63;2.63;;;4.40;99.90;;;;;;5003172;28;20242;-79
2020/12/30 01:00:34;;;;;;;6.20;3.00;;;4.40;99.90;;;;;;5002074;28;20210;-78
2020/12/30 01:03:00;;;;;;;5.00;2.47;;;4.40;99.90;;;;;;5002604;28;20693;-78
2020/12/30 01:05:27;;;;;;;3.47;2.67;;;4.40;99.90;;;;;;5002601;28;20200;-77
2020/12/30 01:07:54;;;;;;;2.97;2.30;;;4.40;99.90;;;;;;5002673;28;20199;-77
2020/12/30 01:10:20;;;;;;;6.60;2.50;;;4.40;99.90;;;;;;5002535;28;20222;-79
2020/12/30 01:12:46;;;;;;;4.27;3.00;;;4.40;99.90;;;;;;5001755;28;20195;-80
2020/12/30 01:15:12;;;;;;;4.23;2.67;;;4.40;99.90;;;;;;5001865;28;20250;-79
2020/12/30 01:17:39;;;;;;;4.50;2.90;;;4.40;99.90;;;;;;5002792;28;20257;-76
2020/12/30 01:20:05;;;;;;;4.50;3.00;;;4.40;99.90;;;;;;5002003;28;20207;-76
2020/12/30 01:22:32;;;;;;;6.03;2.73;;;4.40;99.90;;;;;;5025258;22;20246;-76
2020/12/30 01:24:59;;;;;;;5.23;3.30;;;4.40;99.90;;;;;;5021810;28;20212;-76
2020/12/30 01:27:25;;;;;;;4.90;3.17;;;4.40;99.90;;;;;;5022444;28;20199;-76
2020/12/30 01:29:51;;;;;;;5.07;2.70;;;4.40;99.90;;;;;;5022865;28;20249;-77
2020/12/30 01:32:17;;;;;;;3.57;2.13;;;4.40;99.90;;;;;;5022236;28;20206;-78
2020/12/30 01:34:44;;;;;;;3.77;1.80;;;4.50;99.90;;;;;;5021921;28;20961;-77
2020/12/30 01:37:10;;;;;;;7.03;1.63;;;4.50;99.90;;;;;;5021958;28;20979;-76
2020/12/30 01:39:38;;;;;;;3.47;1.50;;;4.50;99.90;;;;;;5022392;28;20278;-76
2020/12/30 01:42:04;;;;;;;2.83;1.40;;;4.50;99.90;;;;;;5021779;28;20191;-78
2020/12/30 01:44:30;;;;;;;3.07;1.57;;;4.60;99.90;;;;;;5022711;28;20202;-77
2020/12/30 01:46:59;;;;;;;4.13;1.67;;;4.50;99.90;;;;;;5022799;28;20198;-76
2020/12/30 01:49:25;;;;;;;6.90;1.83;;;4.60;99.90;;;;;;5021398;28;20206;-77
2020/12/30 01:51:53;;;;;;;5.93;1.80;;;4.60;99.90;;;;;;5021933;28;20198;-77
2020/12/30 01:54:20;;;;;;;4.63;1.40;;;4.60;99.90;;;;;;5021593;28;20206;-78
2020/12/30 01:56:48;;;;;;;2.23;1.70;;;4.60;99.90;;;;;;5021740;28;20213;-77
2020/12/30 01:59:17;;;;;;;3.63;1.60;;;4.60;99.90;;;;;;5021968;28;20202;-77
2020/12/30 02:01:47;;;;;;;5.67;1.90;;;4.60;99.90;;;;;;5022497;28;20206;-78
2020/12/30 02:04:16;;;;;;;3.00;1.43;;;4.60;99.90;;;;;;5022259;28;20202;-76
2020/12/30 02:06:42;;;;;;;4.13;1.63;;;4.60;99.90;;;;;;5022390;28;20203;-77
2020/12/30 02:09:09;;;;;;;6.40;1.53;;;4.60;99.90;;;;;;5021414;28;20207;-79
2020/12/30 02:11:35;;;;;;;5.37;0.70;;;4.70;99.90;;;;;;5024067;28;20206;-79
2020/12/30 02:14:05;;;;;;;3.07;0.80;;;4.90;99.90;;;;;;5026437;28;20226;-77
2020/12/30 02:16:32;;;;;;;2.40;0.70;;;5.00;99.90;;;;;;5025916;28;20345;-77
2020/12/30 02:18:59;;;;;;;6.80;1.07;;;5.10;99.90;;;;;;5026481;28;20206;-78
2020/12/30 02:21:25;;;;;;;6.20;1.23;;;5.10;99.90;;;;;;5032662;28;20732;-77
2020/12/30 02:23:55;;;;;;;2.00;1.03;;;5.10;99.90;;;;;;5045944;28;20257;-78
2020/12/30 02:26:22;;;;;;;8.43;2.20;;;5.20;99.90;;;;;;5046327;28;20202;-78
2020/12/30 02:28:48;;;;;;;2.20;0.60;;;5.10;99.90;;;;;;5046304;28;20209;-79
2020/12/30 02:31:15;;;;;;;2.10;0.90;;;5.20;99.90;;;;;;5045372;28;20213;-78
2020/12/30 02:33:41;;;;;;;2.27;0.90;;;5.10;99.90;;;;;;5046105;28;20209;-79
2020/12/30 02:36:07;;;;;;;1.20;0.53;;;5.10;99.90;;;;;;5045915;28;20393;-77
2020/12/30 02:38:34;;;;;;;0.60;0.60;;;5.10;99.90;;;;;;5045408;28;20204;-79
2020/12/30 02:41:00;;;;;;;2.00;0.60;;;5.00;99.90;;;;;;5045459;28;20210;-76
2020/12/30 02:43:28;;;;;;;1.57;0.50;;;4.90;99.90;;;;;;5046289;28;20206;-79
2020/12/30 02:45:55;;;;;;;4.23;1.47;;;4.90;99.90;;;;;;5044956;28;20194;-79
2020/12/30 02:48:21;;;;;;;2.60;1.10;;;4.90;99.90;;;;;;5045344;28;20206;-76
2020/12/30 02:50:48;;;;;;;5.57;1.53;;;4.80;99.90;;;;;;5045900;28;20209;-79
2020/12/30 02:53:14;;;;;;;3.20;1.70;;;4.80;99.90;;;;;;5044892;28;20198;-80
2020/12/30 02:55:40;;;;;;;3.17;1.30;;;4.70;99.90;;;;;;5045684;28;20230;-79
2020/12/30 02:58:07;;;;;;;4.40;2.13;;;4.70;99.90;;;;;;5044465;28;20198;-78
2020/12/30 03:00:35;;;;;;;4.73;2.33;;;4.60;99.90;;;;;;5045175;28;20291;-79
2020/12/30 03:03:02;;;;;;;2.67;1.60;;;4.60;99.90;;;;;;5045394;28;20208;-78
2020/12/30 03:05:28;;;;;;;3.70;0.97;;;4.70;99.90;;;;;;5045242;28;20212;-79
2020/12/30 03:07:55;;;;;;;2.03;0.80;;;4.70;99.90;;;;;;5045045;28;20205;-79
2020/12/30 03:10:21;;;;;;;3.27;1.37;;;4.60;99.90;;;;;;5045555;28;20204;-77
2020/12/30 03:12:47;;;;;;;3.83;1.37;;;4.70;99.90;;;;;;5045098;28;20210;-77
2020/12/30 03:15:14;;;;;;;3.60;1.70;;;4.60;99.90;;;;;;5044412;28;20218;-77
2020/12/30 03:17:41;;;;;;;3.73;1.80;;;4.60;99.90;;;;;;5044755;28;20486;-77
2020/12/30 03:20:07;;;;;;;4.60;1.30;;;4.60;99.90;;;;;;5043881;28;20213;-78
2020/12/30 03:22:33;;;;;;;1.60;1.10;;;4.60;99.90;;;;;;5043495;28;20237;-76
2020/12/30 03:25:00;;;;;;;1.77;0.80;;;4.50;99.90;;;;;;5042857;28;20252;-77
2020/12/30 03:27:26;;;;;;;1.43;0.70;;;4.50;99.90;;;;;;5042986;28;20214;-80
2020/12/30 03:29:52;;;;;;;1.47;0.80;;;4.50;99.90;;;;;;5044620;28;20198;-80
2020/12/30 03:32:18;;;;;;;2.50;0.60;;;4.50;99.90;;;;;;5046197;28;20209;-79
2020/12/30 03:34:45;;;;;;;0.50;0.50;;;4.40;99.90;;;;;;5045382;28;20237;-79
2020/12/30 03:37:12;;;;;;;1.73;0.60;;;4.40;99.90;;;;;;5045669;28;20506;-79
2020/12/30 03:39:38;;;;;;;2.63;0.60;;;4.40;99.90;;;;;;5046068;28;20190;-79
2020/12/30 03:42:06;;;;;;;1.17;0.73;;;4.50;99.90;;;;;;5045225;28;20249;-79
2020/12/30 03:44:32;;;;;;;1.23;0.63;;;4.50;99.90;;;;;;5046532;28;20240;-79
2020/12/30 03:46:59;;;;;;;3.90;0.97;;;4.50;99.90;;;;;;5045598;28;20210;-79
2020/12/30 03:49:25;;;;;;;1.20;0.90;;;4.60;99.90;;;;;;5045227;28;20224;-79
2020/12/30 03:51:52;;;;;;;2.33;0.73;;;4.60;99.90;;;;;;5045503;28;20264;-80
2020/12/30 03:54:18;;;;;;;2.77;0.90;;;4.60;99.90;;;;;;5045261;28;20599;-78
2020/12/30 03:56:45;;;;;;;3.23;1.13;;;4.60;99.90;;;;;;5044958;28;20942;-81
2020/12/30 03:59:11;;;;;;;8.13;1.93;;;4.70;99.90;;;;;;5045834;28;20594;-80
2020/12/30 04:01:37;;;;;;;8.43;2.10;;;4.90;99.90;;;;;;5044843;28;20202;-79
2020/12/30 04:04:03;;;;;;;4.83;1.10;;;5.00;99.90;;;;;;5045344;28;20209;-80
2020/12/30 04:06:30;;;;;;;2.43;0.90;;;5.20;99.90;;;;;;5046391;28;20237;-81
2020/12/30 04:08:57;;;;;;;7.13;1.20;;;5.20;99.90;;;;;;5045480;28;20202;-78
2020/12/30 04:11:23;;;;;;;2.57;1.13;;;5.30;99.90;;;;;;5045696;28;20233;-80
2020/12/30 04:13:49;;;;;;;3.13;0.93;;;5.20;99.90;;;;;;5045086;28;20218;-79
2020/12/30 04:16:21;;;;;;;4.27;0.67;;;5.20;99.90;;;;;;5044636;28;20224;-80
2020/12/30 04:18:47;;;;;;;2.73;1.53;;;5.20;99.90;;;;;;5045329;28;20288;-80
2020/12/30 04:21:18;;;;;;;0.97;0.50;;;5.20;99.90;;;;;;5039544;28;20249;-80
2020/12/30 04:23:44;;;;;;;1.37;0.60;;;5.20;99.90;;;;;;5024731;28;20282;-80
2020/12/30 04:26:12;;;;;;;2.83;0.60;;;5.20;99.90;;;;;;5024318;28;20202;-79
2020/12/30 04:28:38;;;;;;;4.50;0.80;;;5.30;99.90;;;;;;5024593;28;20869;-79
2020/12/30 04:31:05;;;;;;;1.07;0.70;;;5.30;99.90;;;;;;5023716;28;20885;-80
2020/12/30 04:33:31;;;;;;;1.67;0.50;;;5.30;99.90;;;;;;5024885;28;20194;-80
2020/12/30 04:35:57;;;;;;;2.13;0.60;;;5.20;99.90;;;;;;5025161;28;20892;-79
2020/12/30 04:38:23;;;;;;;2.90;0.60;;;5.20;99.90;;;;;;5023909;28;20210;-80
2020/12/30 04:40:50;;;;;;;2.20;0.80;;;5.10;99.90;;;;;;5024723;28;20199;-78
2020/12/30 04:43:18;;;;;;;2.47;0.90;;;5.10;99.90;;;;;;5024418;28;20202;-79
2020/12/30 04:45:45;;;;;;;1.13;0.77;;;5.10;99.90;;;;;;5024211;28;20205;-80
2020/12/30 04:48:13;;;;;;;1.67;0.60;;;5.00;99.90;;;;;;5023544;28;20210;-78
2020/12/30 04:50:39;;;;;;;2.53;0.77;;;5.00;99.90;;;;;;5023595;28;20205;-80
2020/12/30 04:53:05;;;;;;;1.73;0.70;;;5.00;99.90;;;;;;5023778;28;20207;-79
2020/12/30 04:55:34;;;;;;;1.07;0.60;;;5.00;99.90;;;;;;5023685;28;20241;-80
2020/12/30 04:58:06;;;;;;;0.93;0.57;;;5.00;99.90;;;;;;5023134;28;20313;-80
2020/12/30 05:00:34;;;;;;;3.67;1.10;;;5.00;99.90;;;;;;5024149;28;20686;-80
2020/12/30 05:03:06;;;;;;;2.83;0.70;;;5.00;99.90;;;;;;5023829;28;20203;-80
2020/12/30 05:05:34;;;;;;;0.67;0.63;;;5.10;99.90;;;;;;5024005;28;20222;-79
2020/12/30 05:08:00;;;;;;;1.30;0.50;;;5.10;99.90;;;;;;5023497;28;20198;-79
2020/12/30 05:10:28;;;;;;;1.60;0.70;;;5.00;99.90;;;;;;5024177;28;20210;-79
2020/12/30 05:12:55;;;;;;;2.47;0.70;;;5.00;99.90;;;;;;5022934;28;20203;-79
2020/12/30 05:15:22;;;;;;;4.00;1.10;;;5.00;99.90;;;;;;5023824;28;20233;-80
2020/12/30 05:17:52;;;;;;;0.80;0.57;;;5.10;99.90;;;;;;5023284;28;20269;-80
2020/12/30 05:20:19;;;;;;;3.93;1.00;;;5.00;99.90;;;;;;5022550;28;20537;-79
2020/12/30 05:22:46;;;;;;;2.57;0.83;;;5.00;99.90;;;;;;5041920;28;20334;-79
2020/12/30 05:25:13;;;;;;;2.93;0.80;;;5.00;99.90;;;;;;5043705;28;20228;-80
2020/12/30 05:27:39;;;;;;;4.07;1.10;;;5.00;99.90;;;;;;5043495;28;20644;-80
2020/12/30 05:30:05;;;;;;;3.33;1.20;;;5.00;99.90;;;;;;5043022;28;20198;-79
2020/12/30 05:32:36;;;;;;;4.00;1.00;;;5.00;99.90;;;;;;5043029;28;20201;-79
2020/12/30 05:35:04;;;;;;;4.37;1.00;;;5.10;99.90;;;;;;5042880;28;20229;-79
2020/12/30 05:37:32;;;;;;;1.80;0.73;;;5.10;99.90;;;;;;5043954;28;20877;-80
2020/12/30 05:39:59;;;;;;;0.70;0.70;;;5.00;99.90;;;;;;5043380;28;20202;-79
2020/12/30 05:42:25;;;;;;;3.67;0.80;;;5.00;99.90;;;;;;5043643;28;20205;-79
2020/12/30 05:44:54;;;;;;;3.77;0.80;;;5.00;99.90;;;;;;5043531;28;20202;-80
2020/12/30 05:47:23;;;;;;;2.27;1.10;;;5.10;99.90;;;;;;5046599;28;20216;-80
2020/12/30 05:49:50;;;;;;;0.70;0.60;;;5.00;99.90;;;;;;5045761;28;20206;-80
2020/12/30 05:52:19;;;;;;;2.87;0.87;;;5.00;99.90;;;;;;5045155;28;20605;-77
2020/12/30 05:54:47;;;;;;;4.03;1.00;;;5.10;99.90;;;;;;5044949;28;20502;-76
2020/12/30 05:57:30;;;;;;;1.67;0.90;;;5.10;99.90;;;;;;5045379;28;20202;-77
2020/12/30 05:59:58;;;;;;;2.03;0.93;;;5.10;99.90;;;;;;5045666;28;20199;-79
2020/12/30 06:02:29;;;;;;;3.53;1.10;;;5.10;99.90;;;;;;5045771;28;20240;-76
2020/12/30 06:04:57;;;;;;;2.33;0.87;;;5.10;99.90;;;;;;5045647;28;20190;-75
2020/12/30 06:07:25;;;;;;;4.73;1.03;;;5.10;99.90;;;;;;5045841;28;20209;-77
2020/12/30 06:09:54;;;;;;;2.53;0.90;;;5.10;99.90;;;;;;5044955;28;20312;-78
2020/12/30 06:12:26;;;;;;;2.13;1.07;;;5.10;99.90;;;;;;5045273;28;20198;-77
2020/12/30 06:14:54;;;;;;;4.37;0.90;;;5.10;99.90;;;;;;5045343;28;20213;-76
2020/12/30 06:17:27;;;;;;;3.37;1.13;;;5.10;99.90;;;;;;5044949;28;20213;-76
2020/12/30 06:19:54;;;;;;;2.53;1.00;;;5.10;99.90;;;;;;5045089;28;20240;-76
2020/12/30 06:22:22;;;;;;;3.60;0.80;;;5.10;99.90;;;;;;5029563;28;20243;-76
2020/12/30 06:24:53;;;;;;;7.40;1.10;;;5.00;99.90;;;;;;5024932;28;20294;-76
2020/12/30 06:27:21;;;;;;;4.77;1.17;;;5.00;99.90;;;;;;5025249;28;20346;-76
2020/12/30 06:29:49;;;;;;;4.00;1.60;;;5.00;99.90;;;;;;5023993;28;20297;-79
2020/12/30 06:32:28;;;;;;;3.67;1.50;;;5.00;99.90;;;;;;5024518;28;20498;-76
2020/12/30 06:34:55;;;;;;;3.80;1.40;;;4.90;99.90;;;;;;5025276;28;20202;-78
2020/12/30 06:37:32;;;;;;;3.73;0.97;;;4.90;99.90;;;;;;5024627;28;20281;-77
2020/12/30 06:40:29;;;;;;;2.13;1.10;;;4.90;99.90;;;;;;5025646;28;20305;-77
2020/12/30 06:42:57;;;;;;;2.33;1.20;;;4.90;99.90;;;;;;5024940;28;20214;-78
2020/12/30 06:45:51;;;;;;;5.13;1.57;;;4.90;99.90;;;;;;5024412;28;20198;-77
2020/12/30 06:48:19;;;;;;;2.70;1.10;;;4.90;99.90;;;;;;4999824;28;20198;-76
2020/12/30 06:50:46;;;;;;;4.07;1.20;;;4.80;99.90;;;;;;5023963;28;20194;-78
2020/12/30 06:53:32;;;;;;;2.13;1.30;;;4.80;99.90;;;;;;5016310;28;20284;-78
2020/12/30 06:56:03;;;;;;;2.43;1.20;;;4.80;99.90;;;;;;5024422;28;20218;-80
2020/12/30 06:58:47;;;;;;;4.77;1.60;;;4.80;99.90;;;;;;5023058;28;20712;-80
2020/12/30 07:01:15;;;;;;;5.07;1.30;;;4.80;99.90;;;;;;5024017;28;20183;-79
2020/12/30 07:03:42;;;;;;;5.07;1.40;;;4.80;99.90;;;;;;5025647;28;20606;-80
2020/12/30 07:06:38;;;;;;;7.40;2.33;;;4.90;99.90;;;;;;5024835;28;20207;-78
2020/12/30 07:09:06;;;;;;;4.50;2.10;;;5.00;99.90;;;;;;5025323;28;20206;-79
2020/12/30 07:11:42;;;;;;;5.40;2.17;;;5.10;99.90;;;;;;5024250;28;20265;-78
2020/12/30 07:14:10;;;;;;;3.53;2.50;;;5.00;99.90;;;;;;5024948;28;20285;-78
2020/12/30 07:16:37;;;;;;;2.37;2.03;;;4.90;99.90;;;;;;5026034;28;20233;-77
2020/12/30 07:19:10;;;;;;;3.13;2.17;;;4.90;99.90;;;;;;5024292;28;20209;-76
2020/12/30 07:21:51;;;;;;;2.70;2.00;;;4.80;99.90;;;;;;5035372;28;20234;-78
2020/12/30 07:24:22;;;;;;;4.00;2.57;;;4.80;99.90;;;;;;5046589;28;20201;-79
2020/12/30 07:26:52;;;;;;;8.40;3.70;;;4.70;99.90;;;;;;5045614;28;20504;-79
2020/12/30 07:29:19;;;;;;;9.37;4.83;;;4.70;99.90;;;;;;5046143;28;20220;-80
2020/12/30 07:31:48;;;;;;;6.50;5.20;;;4.70;99.90;;;;;;5045968;28;20198;-77
2020/12/30 07:34:22;;;;;;;13.30;5.90;;;4.60;99.90;;;;;;5044718;28;20238;-78
2020/12/30 07:36:50;;;;;;;10.33;5.93;;;4.60;99.90;;;;;;5045384;28;20602;-80
2020/12/30 07:39:22;;;;;;;11.73;6.13;;;4.60;99.90;;;;;;5045576;28;20210;-80
2020/12/30 07:41:50;;;;;;;7.03;4.37;;;4.50;99.90;;;;;;5046033;28;20202;-79
2020/12/30 07:44:16;;;;;;;7.50;4.63;;;4.50;99.90;;;;;;5045391;28;20202;-80
2020/12/30 07:46:43;;;;;;;8.20;4.47;;;4.50;99.90;;;;;;5045784;28;20221;-80
2020/12/30 07:49:12;;;;;;;7.20;4.10;;;4.50;99.90;;;;;;5046538;28;20508;-80
2020/12/30 07:51:46;;;;;;;6.40;3.13;;;4.40;99.90;;;;;;5046454;28;20201;-82
2020/12/30 07:54:14;;;;;;;5.83;4.00;;;4.40;99.90;;;;;;5028186;28;20644;-79
2020/12/30 07:56:40;;;;;;;8.30;4.13;;;4.30;99.90;;;;;;5046098;28;20226;-81
2020/12/30 07:59:08;;;;;;;14.33;5.73;;;4.30;99.90;;;;;;5045500;28;20630;-81
2020/12/30 08:01:34;;;;;;;11.70;5.10;;;4.30;99.90;;;;;;5045424;28;20629;-81
2020/12/30 08:04:08;;;;;;;6.20;4.30;;;4.20;99.90;;;;;;5045492;28;20589;-81
2020/12/30 08:06:44;;;;;;;9.53;5.17;;;4.20;99.90;;;;;;5045528;28;20213;-79
2020/12/30 08:09:11;;;;;;;9.90;6.30;;;4.20;99.90;;;;;;5044986;28;20672;-80
2020/12/30 08:11:47;;;;;;;12.13;7.83;;;4.20;99.90;;;;;;5045979;28;20189;-81
2020/12/30 08:14:14;;;;;;;9.87;7.37;;;4.20;99.90;;;;;;5037945;28;20310;-80
2020/12/30 08:16:50;;;;;;;11.53;7.13;;;4.20;99.90;;;;;;5044691;28;20287;-80
2020/12/30 08:19:29;;;;;;;12.73;7.57;;;4.10;99.90;;;;;;5045346;28;20197;-80
2020/12/30 08:22:02;;;;;;;14.23;9.30;;;4.10;99.90;;;;;;5034174;28;21020;-80
2020/12/30 08:24:29;;;;;;;13.70;8.77;;;4.10;99.90;;;;;;5026156;28;20402;-80
2020/12/30 08:26:57;;;;;;;9.90;7.63;;;4.10;99.90;;;;;;5023157;28;20482;-81
2020/12/30 08:29:32;;;;;;;9.47;7.40;;;4.00;99.90;;;;;;5025704;28;20553;-80
2020/12/30 08:32:02;;;;;;;9.63;7.97;;;4.00;99.90;;;;;;5024761;28;20638;-79
2020/12/30 08:34:34;;;;;;;11.50;8.50;;;4.00;99.90;;;;;;5025929;28;20194;-80
2020/12/30 08:37:04;;;;;;;10.37;7.30;;;3.90;99.90;;;;;;5024497;28;20618;-81
2020/12/30 08:39:31;;;;;;;13.80;8.97;;;3.90;99.90;;;;;;5025269;28;20317;-80
2020/12/30 08:42:00;;;;;;;13.03;8.17;;;3.90;99.90;;;;;;5024746;28;20606;-80
2020/12/30 08:44:30;;;;;;;14.60;9.27;;;3.90;99.90;;;;;;5024963;28;20772;-80
2020/12/30 08:46:58;;;;;;;10.40;7.97;;;3.90;99.90;;;;;;5024196;28;20199;-80
2020/12/30 08:49:25;;;;;;;9.80;7.20;;;3.80;99.90;;;;;;5024352;28;20206;-80
2020/12/30 08:51:53;;;;;;;14.87;9.40;;;3.80;99.90;;;;;;5021918;28;20329;-79
2020/12/30 08:54:19;;;;;;;10.17;8.07;;;3.80;99.90;;;;;;5023129;28;20209;-80
2020/12/30 08:56:46;;;;;;;10.23;8.23;;;3.80;99.90;;;;;;5023573;28;20227;-79
2020/12/30 08:59:23;;;;;;;12.93;8.83;;;3.80;99.90;;;;;;5023990;28;20606;-80
2020/12/30 09:01:50;;;;;;;12.10;8.33;;;3.80;99.90;;;;;;5023816;28;20681;-79
2020/12/30 09:04:16;;;;;;;14.90;9.30;;;3.80;99.90;;;;;;5023524;28;20191;-79
2020/12/30 09:06:49;;;;;;;13.17;8.23;;;3.90;99.90;;;;;;5023913;28;20199;-80
2020/12/30 09:09:19;;;;;;;10.27;7.03;;;3.90;99.90;;;;;;5024089;28;20319;-80
2020/12/30 09:11:47;;;;;;;9.90;7.27;;;4.00;99.90;;;;;;5023839;28;20202;-80
2020/12/30 09:14:17;;;;;;;11.07;6.87;;;4.10;99.90;;;;;;5023944;28;20227;-80
2020/12/30 09:16:55;;;;;;;8.00;6.33;;;4.20;99.90;;;;;;5023037;28;20239;-80
2020/12/30 09:19:22;;;;;;;7.93;5.27;;;4.30;99.90;;;;;;5023397;28;20493;-80
2020/12/30 09:21:48;;;;;;;8.37;6.07;;;4.30;99.90;;;;;;5033253;28;20237;-80
2020/12/30 09:24:16;;;;;;;9.87;6.33;;;4.30;99.90;;;;;;5043720;28;20240;-80
2020/12/30 09:26:42;;;;;;;7.20;5.60;;;4.30;99.90;;;;;;5042983;28;20202;-81
2020/12/30 09:29:19;;;;;;;7.67;4.90;;;4.30;99.90;;;;;;5043802;28;20209;-80
2020/12/30 09:31:55;;;;;;;9.07;5.10;;;4.30;99.90;;;;;;5043570;28;20204;-81
2020/12/30 09:34:22;;;;;;;12.07;4.67;;;4.30;99.90;;;;;;5043122;28;20204;-79
2020/12/30 09:36:58;;;;;;;9.47;3.27;;;4.40;99.90;;;;;;5043798;28;20236;-80
2020/12/30 09:39:27;;;;;;;5.97;2.07;;;4.50;99.90;;;;;;5043244;28;20204;-79
2020/12/30 09:42:01;;;;;;;7.77;1.50;;;4.60;99.90;;;;;;5043388;28;20209;-79
2020/12/30 09:44:27;;;;;;;7.60;2.43;;;4.80;99.90;;;;;;5043221;28;20248;-79
2020/12/30 09:46:55;;;;;;;6.53;3.17;;;4.90;99.90;;;;;;5042047;28;20215;-79
2020/12/30 09:49:22;;;;;;;9.93;2.73;;;5.00;99.90;;;;;;5043009;28;20209;-81
2020/12/30 09:51:54;;;;;;;11.37;2.83;;;5.10;99.90;;;;;;5044445;28;20309;-80
2020/12/30 09:54:20;;;;;;;10.93;2.80;;;5.20;99.90;;;;;;5044191;28;20195;-81
2020/12/30 09:56:49;;;;;;;8.30;1.73;;;5.30;99.90;;;;;;5044290;28;20226;-80
2020/12/30 09:59:20;;;;;;;5.47;1.50;;;5.40;99.90;;;;;;5042952;28;20205;-78
2020/12/30 10:01:47;;;;;;;4.67;1.30;;;5.60;99.90;;;;;;5044756;28;20194;-81
2020/12/30 10:04:14;;;;;;;4.90;1.10;;;5.70;99.90;;;;;;5043853;28;20194;-80
2020/12/30 10:06:41;;;;;;;3.10;0.83;;;5.80;99.90;;;;;;5039672;28;20273;-81
2020/12/30 10:09:07;;;;;;;0.50;0.30;;;5.70;99.90;;;;;;5023184;28;20226;-81
2020/12/30 10:11:33;;;;;;;1.20;0.30;;;5.70;99.90;;;;;;5024779;28;20229;-80
2020/12/30 10:13:59;;;;;;;2.17;0.60;;;5.60;99.90;;;;;;5025815;28;20214;-81
2020/12/30 10:16:31;;;;;;;0.50;0.40;;;5.50;99.90;;;;;;5024639;28;20215;-81
2020/12/30 10:18:57;;;;;;;3.23;0.60;;;5.40;99.90;;;;;;5025713;28;20191;-82
2020/12/30 10:21:29;;;;;;;2.70;0.60;;;5.30;99.90;;;;;;5025080;28;20213;-80
2020/12/30 10:23:55;;;;;;;2.43;0.50;;;5.30;99.90;;;;;;5025378;28;20234;-82
2020/12/30 10:26:21;;;;;;;0.93;0.57;;;5.20;99.90;;;;;;5023176;28;20191;-82
2020/12/30 10:28:48;;;;;;;1.63;0.73;;;5.20;99.90;;;;;;5021637;28;20203;-83
2020/12/30 10:31:14;;;;;;;3.30;0.90;;;5.20;99.90;;;;;;5022212;28;20207;-76
2020/12/30 10:33:40;;;;;;;4.17;1.20;;;5.20;99.90;;;;;;5025318;28;20199;-76
2020/12/30 10:36:07;;;;;;;3.77;1.10;;;5.20;99.90;;;;;;5025171;28;20222;-76
2020/12/30 10:38:34;;;;;;;10.57;1.60;;;5.30;99.90;;;;;;5025298;28;20210;-76
2020/12/30 10:41:01;;;;;;;4.07;2.00;;;5.40;99.90;;;;;;5025199;28;20202;-77
2020/12/30 10:43:28;;;;;;;5.57;1.93;;;5.60;99.90;;;;;;5024740;28;20518;-75
2020/12/30 10:45:54;;;;;;;8.57;2.20;;;5.70;99.90;;;;;;5025806;28;20214;-81
2020/12/30 10:48:20;;;;;;;10.00;2.63;;;5.80;99.90;;;;;;5026876;28;20202;-80
2020/12/30 10:50:46;;;;;;;9.53;2.73;;;5.90;99.90;;;;;;5026477;28;20205;-75
2020/12/30 10:53:13;;;;;;;4.80;2.00;;;5.90;99.90;;;;;;5025835;28;20198;-75
2020/12/30 10:55:40;;;;;;;3.03;1.53;;;6.00;99.90;;;;;;5027709;28;20242;-80
2020/12/30 10:58:06;;;;;;;3.70;1.30;;;6.10;99.90;;;;;;5027241;28;20210;-81
2020/12/30 11:00:32;;;;;;;7.40;1.57;;;6.20;99.90;;;;;;5027279;28;20207;-81
2020/12/30 11:02:59;;;;;;;3.33;1.37;;;6.30;99.90;;;;;;5026830;28;20206;-82
2020/12/30 11:05:25;;;;;;;8.43;1.70;;;6.30;99.90;;;;;;5026994;28;20213;-81
2020/12/30 11:07:51;;;;;;;3.77;1.03;;;6.40;99.90;;;;;;5026451;28;20203;-81
2020/12/30 11:10:18;;;;;;;6.20;2.57;;;6.50;99.90;;;;;;5026867;28;20197;-82
2020/12/30 11:12:45;;;;;;;5.97;1.90;;;6.50;99.90;;;;;;5026670;28;20215;-80
2020/12/30 11:15:11;;;;;;;4.37;1.07;;;6.50;99.90;;;;;;5026616;28;20246;-80
2020/12/30 11:17:37;;;;;;;7.67;1.57;;;6.60;99.90;;;;;;5026539;28;20211;-81
2020/12/30 11:20:03;;;;;;;6.67;2.20;;;6.60;99.90;;;;;;5027152;28;20206;-80
2020/12/30 11:22:30;;;;;;;9.17;3.00;;;6.60;99.90;;;;;;5025790;28;20202;-81
2020/12/30 11:24:56;;;;;;;15.50;3.60;;;6.60;99.90;;;;;;5027551;28;20242;-82
2020/12/30 11:27:22;;;;;;;9.87;3.33;;;6.60;99.90;;;;;;5028653;28;20291;-82
2020/12/30 11:29:49;;;;;;;7.13;1.53;;;6.60;99.90;;;;;;5030253;28;20202;-81
2020/12/30 11:32:15;;;;;;;5.10;1.77;;;6.60;99.90;;;;;;5028354;28;20207;-82
2020/12/30 11:34:42;;;;;;;6.50;1.30;;;6.70;99.90;;;;;;5029187;28;20207;-81
2020/12/30 11:37:08;;;;;;;4.97;1.00;;;6.70;99.90;;;;;;5030034;28;20230;-82
2020/12/30 11:39:34;;;;;;;5.73;2.07;;;6.70;99.90;;;;;;5028678;28;20240;-81
2020/12/30 11:42:00;;;;;;;4.30;1.40;;;6.70;99.90;;;;;;5025560;28;20205;-84
2020/12/30 11:44:27;;;;;;;6.10;1.20;;;6.80;99.90;;;;;;5024374;28;20261;-82
2020/12/30 11:46:54;;;;;;;5.33;1.87;;;6.80;99.90;;;;;;5024234;28;20210;-80
2020/12/30 11:49:20;;;;;;;8.67;1.80;;;6.90;99.90;;;;;;5025335;28;20249;-84
2020/12/30 11:51:46;;;;;;;4.40;1.37;;;7.00;99.90;;;;;;5029442;28;20199;-83
2020/12/30 11:54:13;;;;;;;6.93;1.20;;;7.00;99.90;;;;;;5029248;28;20202;-84
2020/12/30 11:56:39;;;;;;;4.57;1.37;;;7.00;99.90;;;;;;5029759;28;20272;-83
2020/12/30 11:59:06;;;;;;;4.63;1.40;;;7.10;99.90;;;;;;5029978;28;20206;-81
2020/12/30 12:01:33;;;;;;;6.23;1.20;;;7.20;99.90;;;;;;5028910;28;20199;-84
2020/12/30 12:04:00;;;;;;;2.53;0.67;;;7.20;99.90;;;;;;5029207;28;20281;-83
2020/12/30 12:06:27;;;;;;;3.30;1.10;;;7.20;99.90;;;;;;5029037;28;20658;-77
2020/12/30 12:08:54;;;;;;;6.33;1.10;;;7.10;99.90;;;;;;5032056;28;20206;-84
2020/12/30 12:11:20;;;;;;;3.40;1.10;;;7.00;99.90;;;;;;5043499;28;20255;-79
2020/12/30 12:13:47;;;;;;;3.17;0.97;;;6.90;99.90;;;;;;5043643;28;20218;-79
2020/12/30 12:16:13;;;;;;;5.67;1.00;;;6.70;99.90;;;;;;5027002;28;20230;-77
2020/12/30 12:18:40;;;;;;;3.73;0.97;;;6.60;99.90;;;;;;5025287;28;20202;-82
2020/12/30 12:21:07;;;;;;;2.47;1.00;;;6.40;99.90;;;;;;5027591;28;20599;-83
2020/12/30 12:23:34;;;;;;;1.90;0.77;;;6.30;99.90;;;;;;5028085;28;20594;-87
2020/12/30 12:26:00;;;;;;;4.23;1.20;;;6.30;99.90;;;;;;5025462;28;20198;-77
2020/12/30 12:28:38;;;;;;;4.20;1.80;;;6.30;99.90;;;;;;5025090;28;20209;-85
2020/12/30 12:31:05;;;;;;;5.43;1.70;;;6.30;99.90;;;;;;5024242;28;20292;-77
2020/12/30 12:33:31;;;;;;;4.57;1.63;;;6.30;99.90;;;;;;5024687;28;20195;-78
2020/12/30 12:35:57;;;;;;;5.10;1.53;;;6.40;99.90;;;;;;5024015;28;20231;-79
2020/12/30 12:38:24;;;;;;;6.90;1.90;;;6.40;99.90;;;;;;5024676;28;20218;-84
2020/12/30 12:40:51;;;;;;;6.20;1.43;;;6.40;99.90;;;;;;5024608;28;20233;-81
2020/12/30 12:43:17;;;;;;;5.93;0.90;;;6.50;99.90;;;;;;5025230;28;20206;-80
2020/12/30 12:45:43;;;;;;;5.20;1.27;;;6.50;99.90;;;;;;5022220;28;20206;-78
2020/12/30 12:48:09;;;;;;;2.80;1.00;;;6.50;99.90;;;;;;5023031;28;20206;-83
2020/12/30 12:50:36;;;;;;;4.73;1.40;;;6.50;99.90;;;;;;5020397;28;20216;-84
2020/12/30 12:53:02;;;;;;;3.57;1.43;;;6.40;99.90;;;;;;5023424;28;20312;-84
2020/12/30 12:55:29;;;;;;;5.83;1.50;;;6.40;99.90;;;;;;5024118;28;20205;-85
2020/12/30 12:57:55;;;;;;;10.70;2.03;;;6.40;99.90;;;;;;5024663;28;20203;-84
2020/12/30 13:00:22;;;;;;;4.87;1.43;;;6.40;99.90;;;;;;5024278;28;20249;-81